Cambridge, MA (02138)

2:27 AM EDT on August 28, 2014 (GMT -0400)
Porter Square | Change Station
CLOSE
Current Station
Personal Weather Station
Location: Cambridge, MA
Elevation: 47 ft
Nearby Weather Stations

Elev 47 ft 42.39 °N, 71.12 °W | Updated 11 minutes ago

Clear
Clear
72.7 °F
Feels Like 72.7 °F
N
0.0
Wind Variable Wind from North
Gusts 0.0 mph

Today
High -- | Low -- °F
--% Chance of Precip.
Yesterday
High -- | Low -- °F
Precip. -- in
6:05 AM 7:25 PM
Waxing Crescent, 6% visible
Pressure 29.81 in
Visibility 10.0 miles
Clouds Few 11000 ft
Dew Point 72 °F
Humidity 97%
Rainfall 0.00 in
Snow Depth Not available.
UV 0 out of 12
Pollen 10.20 out of 12
Ozone Good
PM2.5 Good
Flu Activity Not available.
METAR KBOS 280554Z 29007KT 10SM FEW110 23/21 A2981 RMK AO2 SLP095 60002 T02330206 10283 20233 58009

More Conditions Fewer Conditions

Pressure 29.81 in
Visibility 10.0 miles
Clouds Few 11000 ft
Dew Point 72 °F
Humidity 97%
Rainfall 0.00 in
Snow Depth Not available.
UV 0 out of 12
Pollen 10.20 out of 12
Ozone Good
PM2.5 Good
Flu Activity Not available.
METAR KBOS 280554Z 29007KT 10SM FEW110 23/21 A2981 RMK AO2 SLP095 60002 T02330206 10283 20233 58009

More Conditions Fewer Conditions

10-Day Weather Forecast

Almanac

Astronomy

Aug. 28, 2014 Rise Set
Actual Time 6:05 AM EDT 7:25 PM EDT
Civil Twilight 5:36 AM EDT 7:54 PM EDT
Nautical Twilight 5:01 AM EDT 8:29 PM EDT
Astronomical Twilight 4:23 AM EDT 9:06 PM EDT
Moon 8:59 AM EDT 8:42 PM EDT
Length of Visible Light 14h 18m
Length of Day
13h 19m
Tomorrow will be 2m 43s shorter.
Waxing Crescent, 6% of the Moon is Illuminated
Today
Waxing Crescent
Sep 2
First Quarter
Sep 8
Full
Sep 15
Last Quarter
Sep 24
New

Today's Extremes

State Highs State Lows

Community

WunderPhotos

Upload Photos

1,747,912 photos uploaded!

Nearby

Air Quality

  Air Quality AQ Index Pollutant
Yesterday Moderate
PM2.5
Yesterday Good
OZONE
Current Good
PM2.5
Current Good
OZONE
Thursday Good
PM2.5
Thursday Good
OZONE

Snow Depth

Station Depth Elevation
No new snow has been reported.

Earthquake Activity

City Distance Mag. Time & Date
No recent earthquake activity has been reported nearby.
Minimum magnitude displayed is 2.5.

Coastal Water Temperatures

Place Temperature
Boston, MA 68.0 °F
Providence, RI 73.9 °F
Fall River, MA 73.9 °F
Conimicut Light, RI 73.0 °F

Nearby Weather Stations